Time;durP1;ratioP1;P1;durP2;ratioP2;P2;SDS_P1;SDS_P2;PMS_P1;PMS_P2;Temp;Humidity;BMP_temperature;BMP_pressure;BME280_temperature;BME280_humidity;BME280_pressure;Samples;Min_cycle;Max_cycle;Signal;HPM_P1;HPM_P2
2022/03/25 00:01:38;;;;;;;112.20;45.17;;;5.20;99.90;;;;;;6165717;23;20523;-83
2022/03/25 00:04:04;;;;;;;110.55;43.38;;;5.30;99.90;;;;;;6164227;23;20009;-83
2022/03/25 00:06:31;;;;;;;110.28;43.53;;;5.30;99.90;;;;;;6167513;23;20056;-82
2022/03/25 00:08:57;;;;;;;115.65;47.15;;;5.30;99.90;;;;;;6168626;23;20091;-82
2022/03/25 00:11:22;;;;;;;109.22;45.55;;;5.30;99.90;;;;;;6136834;23;20017;-80
2022/03/25 00:13:48;;;;;;;99.22;42.15;;;5.30;99.90;;;;;;6160421;23;20048;-80
2022/03/25 00:16:13;;;;;;;101.60;41.28;;;5.30;99.90;;;;;;6190007;23;20064;-81
2022/03/25 00:18:39;;;;;;;105.60;43.88;;;5.20;99.90;;;;;;6165099;23;20017;-81
2022/03/25 00:21:05;;;;;;;109.75;45.75;;;5.00;99.90;;;;;;6165400;23;20017;-81
2022/03/25 00:23:31;;;;;;;103.13;42.53;;;4.90;99.90;;;;;;6165984;23;20047;-81
2022/03/25 00:25:57;;;;;;;97.45;41.90;;;4.80;99.90;;;;;;6164471;23;20084;-81
2022/03/25 00:28:22;;;;;;;112.97;45.08;;;4.80;99.90;;;;;;6165976;23;20017;-81
2022/03/25 00:30:49;;;;;;;112.15;46.20;;;4.80;99.90;;;;;;6162280;23;20017;-82
2022/03/25 00:33:15;;;;;;;110.97;46.28;;;4.80;99.90;;;;;;6162513;23;20059;-81
2022/03/25 00:35:41;;;;;;;111.93;45.72;;;4.80;99.90;;;;;;6163553;23;20017;-81
2022/03/25 00:38:07;;;;;;;110.05;45.28;;;4.80;99.90;;;;;;6164873;23;20088;-81
2022/03/25 00:40:32;;;;;;;113.32;44.60;;;4.80;99.90;;;;;;6140078;23;20569;-81
2022/03/25 00:42:58;;;;;;;117.82;46.85;;;4.80;99.90;;;;;;6139959;23;20075;-81
2022/03/25 00:45:24;;;;;;;111.03;45.60;;;4.70;99.90;;;;;;6162340;23;20017;-81
2022/03/25 00:47:49;;;;;;;102.53;42.58;;;4.70;99.90;;;;;;6164277;23;20021;-81
2022/03/25 00:50:16;;;;;;;110.50;43.10;;;4.70;99.90;;;;;;6164683;23;20463;-81
2022/03/25 00:52:42;;;;;;;110.57;43.47;;;4.60;99.90;;;;;;6165697;23;20442;-81
2022/03/25 00:55:08;;;;;;;111.55;42.33;;;4.60;99.90;;;;;;6140671;23;20017;-81
2022/03/25 00:57:33;;;;;;;112.93;44.00;;;4.50;99.90;;;;;;6163463;23;20450;-81
2022/03/25 01:00:00;;;;;;;113.15;45.53;;;4.50;99.90;;;;;;6190228;23;20472;-81
2022/03/25 01:02:25;;;;;;;111.68;47.08;;;4.50;99.90;;;;;;6163128;23;20066;-81
2022/03/25 01:04:51;;;;;;;107.10;44.63;;;4.60;99.90;;;;;;6163319;23;20454;-81
2022/03/25 01:07:17;;;;;;;106.78;41.08;;;4.60;99.90;;;;;;6163580;23;20064;-81
2022/03/25 01:09:44;;;;;;;107.40;44.03;;;4.60;99.90;;;;;;6163933;23;20017;-81
2022/03/25 01:12:10;;;;;;;114.22;44.70;;;4.70;99.90;;;;;;6165470;23;20027;-82
2022/03/25 01:14:36;;;;;;;123.13;45.65;;;4.70;99.90;;;;;;6164666;23;20060;-81
2022/03/25 01:17:02;;;;;;;124.32;44.28;;;4.70;99.90;;;;;;6138154;23;20315;-81
2022/03/25 01:19:27;;;;;;;109.78;44.42;;;4.60;99.90;;;;;;6162479;23;20021;-81
2022/03/25 01:21:54;;;;;;;110.93;44.60;;;4.60;99.90;;;;;;6164802;23;20069;-81
2022/03/25 01:24:20;;;;;;;117.35;47.10;;;4.60;99.90;;;;;;6164875;23;20017;-81
2022/03/25 01:26:46;;;;;;;108.75;44.58;;;4.60;99.90;;;;;;6159461;23;20028;-81
2022/03/25 01:29:12;;;;;;;103.20;42.20;;;4.60;99.90;;;;;;6158382;23;20013;-81
2022/03/25 01:31:38;;;;;;;103.32;39.20;;;4.50;99.90;;;;;;6157573;23;20017;-81
2022/03/25 01:34:04;;;;;;;103.85;42.67;;;4.50;99.90;;;;;;6133910;23;20100;-81
2022/03/25 01:36:30;;;;;;;98.70;40.28;;;4.40;99.90;;;;;;6158353;23;20009;-81
2022/03/25 01:38:56;;;;;;;103.53;40.95;;;4.30;99.90;;;;;;6156550;23;20091;-81
2022/03/25 01:41:21;;;;;;;99.65;41.75;;;4.30;99.90;;;;;;6158759;23;20017;-81
2022/03/25 01:43:53;;;;;;;102.80;41.40;;;4.20;99.90;;;;;;6158477;23;20024;-81
2022/03/25 01:46:18;;;;;;;103.97;42.03;;;4.10;99.90;;;;;;6132570;23;20028;-81
2022/03/25 01:48:44;;;;;;;94.88;40.35;;;4.10;99.90;;;;;;6133616;23;20009;-81
2022/03/25 01:51:10;;;;;;;107.15;42.83;;;4.00;99.90;;;;;;6157352;23;20013;-81
2022/03/25 01:53:36;;;;;;;102.78;40.95;;;4.00;99.90;;;;;;6157317;23;20464;-81
2022/03/25 01:56:02;;;;;;;104.10;40.42;;;3.90;99.90;;;;;;6157921;23;20017;-81
2022/03/25 01:58:32;;;;;;;109.13;43.45;;;3.90;99.90;;;;;;6156715;23;20581;-81
2022/03/25 02:00:59;;;;;;;98.95;42.95;;;3.90;99.90;;;;;;6184607;23;20017;-81
2022/03/25 02:03:25;;;;;;;108.28;43.92;;;3.90;99.90;;;;;;6133879;23;20013;-81
2022/03/25 02:05:50;;;;;;;109.85;42.53;;;3.80;99.90;;;;;;6157275;23;20013;-81
2022/03/25 02:08:17;;;;;;;106.50;42.28;;;3.80;99.90;;;;;;6156700;23;20017;-81
2022/03/25 02:10:44;;;;;;;108.25;43.17;;;3.90;99.90;;;;;;6156522;23;20037;-81
2022/03/25 02:13:10;;;;;;;118.47;46.05;;;3.90;99.90;;;;;;6157451;23;20354;-81
2022/03/25 02:15:41;;;;;;;107.53;43.45;;;3.90;99.90;;;;;;6158277;23;20017;-81
2022/03/25 02:18:12;;;;;;;119.60;46.33;;;3.90;99.90;;;;;;6157110;23;20655;-81
2022/03/25 02:20:39;;;;;;;112.95;44.58;;;3.90;99.90;;;;;;6132357;23;20009;-81
2022/03/25 02:23:06;;;;;;;107.57;42.13;;;4.00;99.90;;;;;;6133117;23;20390;-81
2022/03/25 02:25:32;;;;;;;103.82;41.22;;;3.90;99.90;;;;;;6160762;23;20454;-81
2022/03/25 02:27:59;;;;;;;102.15;42.22;;;3.90;99.90;;;;;;6163134;23;20055;-81
2022/03/25 02:30:26;;;;;;;114.22;45.47;;;3.70;99.90;;;;;;6163405;23;20044;-81
2022/03/25 02:32:53;;;;;;;111.13;43.85;;;3.60;99.90;;;;;;6139871;23;20020;-81
2022/03/25 02:35:19;;;;;;;105.47;40.53;;;3.60;99.90;;;;;;6161985;23;20016;-81
2022/03/25 02:37:44;;;;;;;118.93;45.15;;;3.60;99.90;;;;;;6160317;23;20017;-81
2022/03/25 02:40:10;;;;;;;107.97;43.38;;;3.60;99.90;;;;;;6162809;23;20518;-81
2022/03/25 02:42:36;;;;;;;110.88;43.17;;;3.60;99.90;;;;;;6136972;23;20092;-81
2022/03/25 02:45:03;;;;;;;109.38;43.10;;;3.70;99.90;;;;;;6162797;23;20020;-81
2022/03/25 02:47:28;;;;;;;122.15;45.63;;;3.70;99.90;;;;;;6188973;23;20449;-81
2022/03/25 02:49:54;;;;;;;116.82;43.65;;;3.70;99.90;;;;;;6159752;23;20029;-81
2022/03/25 02:52:20;;;;;;;117.30;43.63;;;3.70;99.90;;;;;;6138661;23;20013;-81
2022/03/25 02:54:45;;;;;;;114.65;45.70;;;3.70;99.90;;;;;;6138013;23;20655;-81
2022/03/25 02:57:10;;;;;;;104.25;43.17;;;3.70;99.90;;;;;;6163844;23;20323;-80
2022/03/25 02:59:36;;;;;;;110.72;42.92;;;3.60;99.90;;;;;;6166086;23;20009;-81
2022/03/25 03:02:02;;;;;;;117.50;45.92;;;3.60;99.90;;;;;;6165688;23;20017;-81
2022/03/25 03:04:27;;;;;;;111.05;43.50;;;3.60;99.90;;;;;;6167263;23;20095;-81
2022/03/25 03:06:53;;;;;;;107.93;44.30;;;3.50;99.90;;;;;;6165457;23;20017;-81
2022/03/25 03:09:19;;;;;;;115.43;45.55;;;3.50;99.90;;;;;;6167062;23;20020;-82
2022/03/25 03:11:45;;;;;;;101.25;42.45;;;3.40;99.90;;;;;;6164317;23;20025;-81
2022/03/25 03:14:10;;;;;;;100.45;40.97;;;3.40;99.90;;;;;;6165839;23;20013;-81
2022/03/25 03:16:36;;;;;;;114.78;44.22;;;3.30;99.90;;;;;;6166542;23;20021;-81
2022/03/25 03:19:01;;;;;;;96.88;41.50;;;3.30;99.90;;;;;;6165496;23;20040;-81
2022/03/25 03:21:29;;;;;;;111.15;45.47;;;3.30;99.90;;;;;;6162123;23;20413;-81
2022/03/25 03:23:55;;;;;;;103.28;42.08;;;3.30;99.90;;;;;;6163810;23;20041;-82
2022/03/25 03:26:21;;;;;;;103.75;42.70;;;3.30;99.90;;;;;;6164149;23;20140;-81
2022/03/25 03:28:47;;;;;;;103.22;41.85;;;3.20;99.90;;;;;;6163072;23;20067;-81
2022/03/25 03:31:13;;;;;;;101.03;42.33;;;3.10;99.90;;;;;;6164689;23;20017;-81
2022/03/25 03:33:38;;;;;;;105.38;42.05;;;3.10;99.90;;;;;;6162943;23;20017;-81
2022/03/25 03:36:04;;;;;;;109.93;42.45;;;3.00;99.90;;;;;;6165567;23;20067;-81
2022/03/25 03:38:30;;;;;;;109.55;40.75;;;3.10;99.90;;;;;;6164827;23;20048;-81
2022/03/25 03:40:56;;;;;;;111.50;43.63;;;3.00;99.90;;;;;;6166318;23;20016;-81
2022/03/25 03:43:22;;;;;;;126.63;46.40;;;3.00;99.90;;;;;;6165365;23;20017;-81
2022/03/25 03:45:48;;;;;;;105.70;43.33;;;3.10;99.90;;;;;;6165681;23;20347;-81
2022/03/25 03:48:14;;;;;;;107.78;42.30;;;3.20;99.90;;;;;;6188951;23;20013;-81
2022/03/25 03:50:40;;;;;;;105.40;42.15;;;3.20;99.90;;;;;;6162848;23;20032;-81
2022/03/25 03:53:06;;;;;;;97.63;40.65;;;3.20;99.90;;;;;;6164459;23;20017;-81
2022/03/25 03:55:32;;;;;;;104.72;41.28;;;3.20;99.90;;;;;;6164650;23;20067;-81
2022/03/25 03:57:58;;;;;;;93.05;38.20;;;3.20;99.90;;;;;;6163910;23;20017;-81
2022/03/25 04:00:26;;;;;;;93.45;39.20;;;3.10;99.90;;;;;;6164185;23;20100;-81
2022/03/25 04:02:54;;;;;;;100.13;38.47;;;3.10;99.90;;;;;;6164575;23;20012;-82
2022/03/25 04:05:19;;;;;;;103.63;42.00;;;3.00;99.90;;;;;;6164084;23;20530;-81
2022/03/25 04:07:47;;;;;;;90.65;36.80;;;2.90;99.90;;;;;;6162578;23;20020;-81
2022/03/25 04:10:14;;;;;;;89.40;36.10;;;2.90;99.90;;;;;;6161949;23;20017;-81
2022/03/25 04:12:40;;;;;;;94.47;37.45;;;2.90;99.90;;;;;;6161387;23;20769;-81
2022/03/25 04:15:09;;;;;;;87.60;36.47;;;2.90;99.90;;;;;;6162881;23;20024;-81
2022/03/25 04:17:36;;;;;;;78.22;33.70;;;2.90;99.90;;;;;;6163093;23;20051;-81
2022/03/25 04:20:01;;;;;;;74.78;30.92;;;2.80;99.90;;;;;;6162846;23;20020;-81
2022/03/25 04:22:27;;;;;;;72.53;31.35;;;2.80;99.90;;;;;;6138049;23;20009;-81
2022/03/25 04:24:55;;;;;;;83.95;34.22;;;2.80;99.90;;;;;;6161820;23;20048;-81
2022/03/25 04:27:21;;;;;;;70.65;31.38;;;2.70;99.90;;;;;;6161914;23;20034;-81
2022/03/25 04:29:46;;;;;;;77.05;31.10;;;2.70;99.90;;;;;;6162931;23;20651;-81
2022/03/25 04:32:12;;;;;;;71.93;31.05;;;2.70;99.90;;;;;;6137078;23;20092;-81
2022/03/25 04:34:37;;;;;;;71.05;31.33;;;2.60;99.90;;;;;;6138857;23;20053;-81
2022/03/25 04:37:03;;;;;;;61.03;25.58;;;2.60;99.90;;;;;;6161687;23;20017;-81
2022/03/25 04:39:29;;;;;;;63.45;27.45;;;2.50;99.90;;;;;;6159791;23;20009;-81
2022/03/25 04:41:54;;;;;;;67.13;29.38;;;2.40;99.90;;;;;;6162489;23;20021;-81
2022/03/25 04:44:20;;;;;;;68.07;29.40;;;2.40;99.90;;;;;;6162032;23;20104;-81
2022/03/25 04:46:45;;;;;;;71.03;29.98;;;2.40;99.90;;;;;;6162912;23;20059;-81
2022/03/25 04:49:11;;;;;;;73.13;31.17;;;2.30;99.90;;;;;;6161607;23;20021;-81
2022/03/25 04:51:37;;;;;;;65.50;27.42;;;2.30;99.90;;;;;;6161785;23;20023;-81
2022/03/25 04:54:03;;;;;;;58.83;27.38;;;2.30;99.90;;;;;;6139387;23;20013;-81
2022/03/25 04:56:29;;;;;;;53.10;25.80;;;2.20;99.90;;;;;;6161121;23;20020;-81
2022/03/25 04:58:55;;;;;;;59.10;25.42;;;2.20;99.90;;;;;;6163407;23;20021;-81
2022/03/25 05:01:21;;;;;;;65.90;27.30;;;2.10;99.90;;;;;;6163199;23;20017;-80
2022/03/25 05:03:46;;;;;;;60.00;28.23;;;2.10;99.90;;;;;;6190476;23;20148;-81
2022/03/25 05:06:12;;;;;;;70.68;29.83;;;2.00;99.90;;;;;;6160874;23;20017;-80
2022/03/25 05:08:38;;;;;;;64.15;28.25;;;2.00;99.90;;;;;;6161665;23;20009;-81
2022/03/25 05:11:04;;;;;;;74.25;32.08;;;1.90;99.90;;;;;;6160336;23;20096;-81
2022/03/25 05:13:29;;;;;;;66.25;29.27;;;1.90;99.90;;;;;;6159475;23;20023;-81
2022/03/25 05:15:55;;;;;;;78.22;31.85;;;2.00;99.90;;;;;;6164467;23;20022;-81
2022/03/25 05:18:20;;;;;;;63.40;30.27;;;1.90;99.90;;;;;;6136229;23;20024;-81
2022/03/25 05:20:46;;;;;;;72.20;31.33;;;1.80;99.90;;;;;;6161324;23;20088;-81
2022/03/25 05:23:12;;;;;;;66.28;28.02;;;1.70;99.90;;;;;;6161687;23;20028;-81
2022/03/25 05:25:38;;;;;;;69.88;30.50;;;1.70;99.90;;;;;;6157120;23;20360;-81
2022/03/25 05:28:03;;;;;;;64.85;27.90;;;1.70;99.90;;;;;;6159277;23;20013;-80
2022/03/25 05:30:33;;;;;;;222.98;37.65;;;1.70;99.90;;;;;;6156877;23;20027;-81
2022/03/25 05:32:59;;;;;;;63.72;25.63;;;1.60;99.90;;;;;;6158894;23;20080;-81
2022/03/25 05:35:26;;;;;;;118.88;29.42;;;1.50;99.90;;;;;;6161013;23;20087;-80
2022/03/25 05:37:52;;;;;;;99.28;27.58;;;1.40;99.90;;;;;;6162543;23;20061;-80
2022/03/25 05:40:20;;;;;;;90.40;30.67;;;1.30;99.90;;;;;;6160330;23;20009;-80
2022/03/25 05:42:47;;;;;;;95.57;27.50;;;1.30;99.90;;;;;;6162927;23;20067;-81
2022/03/25 05:45:14;;;;;;;164.63;33.25;;;1.20;99.90;;;;;;6161434;23;20009;-80
2022/03/25 05:47:40;;;;;;;270.65;39.53;;;1.20;99.90;;;;;;6161878;23;20020;-80
2022/03/25 05:50:07;;;;;;;124.13;29.33;;;1.10;99.90;;;;;;6161037;23;20013;-80
2022/03/25 05:52:33;;;;;;;65.80;27.65;;;1.00;99.90;;;;;;6162091;23;20012;-80
2022/03/25 05:54:58;;;;;;;61.20;27.23;;;1.10;99.90;;;;;;6162370;23;20316;-80
2022/03/25 05:57:24;;;;;;;69.88;29.85;;;1.20;99.90;;;;;;6161498;23;20056;-80
2022/03/25 05:59:50;;;;;;;65.65;29.60;;;1.30;99.90;;;;;;6161215;23;20443;-80
2022/03/25 06:02:16;;;;;;;55.53;25.02;;;1.50;99.90;;;;;;6162058;23;20382;-80
2022/03/25 06:04:41;;;;;;;59.67;26.02;;;1.50;99.90;;;;;;6136910;23;20435;-80
2022/03/25 06:07:07;;;;;;;58.88;26.70;;;1.50;99.90;;;;;;6161226;23;20071;-80
2022/03/25 06:09:33;;;;;;;64.38;26.77;;;1.60;99.90;;;;;;6158981;23;20502;-80
2022/03/25 06:11:59;;;;;;;57.15;25.85;;;1.60;99.90;;;;;;6160315;23;20017;-80
2022/03/25 06:14:25;;;;;;;56.85;25.38;;;1.60;99.90;;;;;;6162360;23;20017;-80
2022/03/25 06:16:51;;;;;;;53.58;25.23;;;1.70;99.90;;;;;;6160272;23;20009;-80
2022/03/25 06:19:17;;;;;;;67.18;28.83;;;1.70;99.90;;;;;;6160778;23;20013;-80
2022/03/25 06:21:43;;;;;;;56.03;25.05;;;1.80;99.90;;;;;;6159220;23;20013;-80
2022/03/25 06:24:08;;;;;;;62.47;28.38;;;2.00;99.90;;;;;;6159458;23;20017;-80
2022/03/25 06:26:34;;;;;;;62.20;27.80;;;2.10;99.90;;;;;;6159880;23;20021;-80
2022/03/25 06:29:00;;;;;;;65.90;27.70;;;2.30;99.90;;;;;;6158730;23;20013;-80
2022/03/25 06:31:25;;;;;;;61.40;28.80;;;2.40;99.90;;;;;;6132100;23;20017;-80
2022/03/25 06:33:51;;;;;;;65.10;27.58;;;2.40;99.90;;;;;;6133018;23;20009;-80
2022/03/25 06:36:16;;;;;;;61.83;27.83;;;2.50;99.90;;;;;;6131765;23;20024;-80
2022/03/25 06:38:42;;;;;;;70.10;29.65;;;2.60;99.90;;;;;;6137584;23;20104;-80
2022/03/25 06:41:09;;;;;;;66.13;27.98;;;2.70;99.90;;;;;;6142463;23;20017;-80
2022/03/25 06:43:35;;;;;;;68.78;29.02;;;2.90;99.90;;;;;;6162201;23;20012;-80
2022/03/25 06:46:01;;;;;;;75.70;29.58;;;2.90;99.90;;;;;;6183423;23;20020;-80
2022/03/25 06:48:27;;;;;;;72.85;31.67;;;3.10;99.90;;;;;;6184255;23;20017;-80
2022/03/25 06:50:53;;;;;;;75.10;33.17;;;3.20;99.90;;;;;;6156784;23;20017;-80
2022/03/25 06:53:19;;;;;;;71.22;31.05;;;3.40;99.90;;;;;;6162250;23;20059;-80
2022/03/25 06:55:45;;;;;;;75.68;30.30;;;3.50;99.90;;;;;;6161513;23;20040;-80
2022/03/25 06:58:11;;;;;;;69.95;29.65;;;3.60;99.90;;;;;;6133687;23;20013;-80
2022/03/25 07:00:37;;;;;;;71.82;29.00;;;3.80;99.90;;;;;;6133646;23;20473;-80
2022/03/25 07:03:04;;;;;;;71.30;29.13;;;4.00;99.90;;;;;;6134054;23;20028;-80
2022/03/25 07:05:30;;;;;;;76.90;30.10;;;4.10;99.90;;;;;;6158581;23;20013;-80
2022/03/25 07:07:56;;;;;;;71.43;29.90;;;4.30;99.90;;;;;;6158740;23;20013;-80
2022/03/25 07:10:23;;;;;;;70.93;29.92;;;4.50;99.90;;;;;;6132690;23;20518;-80
2022/03/25 07:12:51;;;;;;;63.78;27.75;;;4.60;99.90;;;;;;6135202;23;20017;-80
2022/03/25 07:15:17;;;;;;;70.60;28.77;;;4.70;99.90;;;;;;6158943;23;20020;-80
2022/03/25 07:17:43;;;;;;;61.63;26.92;;;4.90;99.90;;;;;;6157436;23;20036;-80
2022/03/25 07:20:14;;;;;;;60.97;26.77;;;5.00;99.90;;;;;;6159801;23;20067;-75
2022/03/25 07:22:44;;;;;;;55.78;26.90;;;5.20;99.90;;;;;;6184698;23;20016;-80
2022/03/25 07:25:12;;;;;;;59.47;26.90;;;5.70;99.90;;;;;;6158916;23;20024;-81
2022/03/25 07:27:38;;;;;;;65.97;29.33;;;6.40;99.90;;;;;;6157364;23;20009;-81
2022/03/25 07:30:05;;;;;;;60.88;27.90;;;7.10;99.90;;;;;;6135627;23;20009;-80
2022/03/25 07:32:31;;;;;;;59.03;27.33;;;7.80;99.90;;;;;;6158829;23;20009;-79
2022/03/25 07:34:57;;;;;;;56.25;27.52;;;8.40;99.90;;;;;;6134254;23;20017;-80
2022/03/25 07:37:22;;;;;;;58.75;28.23;;;8.90;99.90;;;;;;6158379;23;20307;-80
2022/03/25 07:39:49;;;;;;;50.45;25.40;;;9.50;99.90;;;;;;6158691;23;20020;-80
2022/03/25 07:42:14;;;;;;;53.35;26.95;;;9.80;99.90;;;;;;6159988;23;20024;-80
2022/03/25 07:44:40;;;;;;;55.80;26.00;;;10.20;99.90;;;;;;6137103;23;20009;-80
2022/03/25 07:47:07;;;;;;;52.13;26.92;;;10.50;99.90;;;;;;6161217;23;20024;-80
2022/03/25 07:49:34;;;;;;;52.65;28.92;;;10.80;99.90;;;;;;6160742;23;20021;-80
2022/03/25 07:52:00;;;;;;;51.63;27.75;;;11.00;99.90;;;;;;6162825;23;20024;-80
2022/03/25 07:54:26;;;;;;;54.70;29.13;;;11.20;99.90;;;;;;6161042;23;20063;-80
2022/03/25 07:56:54;;;;;;;57.03;30.60;;;11.60;99.90;;;;;;6162670;23;20056;-81
2022/03/25 07:59:20;;;;;;;57.67;29.88;;;11.70;99.90;;;;;;6162740;23;20013;-81
2022/03/25 08:01:46;;;;;;;54.08;29.30;;;11.90;99.90;;;;;;6186996;23;20024;-80
2022/03/25 08:04:11;;;;;;;55.50;28.67;;;12.10;99.90;;;;;;6161403;23;20021;-80
2022/03/25 08:06:37;;;;;;;56.42;27.88;;;12.30;99.90;;;;;;6137252;23;20040;-80
2022/03/25 08:09:03;;;;;;;55.13;29.88;;;12.50;99.90;;;;;;6161767;23;20406;-80
2022/03/25 08:11:28;;;;;;;53.83;28.77;;;12.70;99.90;;;;;;6136367;23;20092;-80
2022/03/25 08:13:54;;;;;;;55.25;28.60;;;12.90;99.90;;;;;;6138096;23;20015;-80
2022/03/25 08:16:19;;;;;;;47.35;28.08;;;13.00;99.90;;;;;;6136983;23;20396;-80
2022/03/25 08:18:45;;;;;;;50.58;27.75;;;13.20;99.90;;;;;;6137564;23;20450;-80
2022/03/25 08:21:11;;;;;;;54.10;28.70;;;13.40;99.90;;;;;;6136763;23;20465;-80
2022/03/25 08:29:06;;;;;;;55.65;28.58;;;13.40;99.90;;;;;;6160655;23;20319;-81
2022/03/25 08:31:34;;;;;;;50.60;28.13;;;13.40;99.90;;;;;;6159464;23;20139;-79
2022/03/25 08:34:04;;;;;;;52.70;28.35;;;13.30;99.90;;;;;;6159622;23;20028;-81
2022/03/25 08:36:29;;;;;;;52.33;28.73;;;13.30;99.90;;;;;;6135156;23;20016;-81
2022/03/25 08:38:55;;;;;;;49.63;25.70;;;13.40;99.90;;;;;;6135022;23;20009;-81
2022/03/25 08:41:21;;;;;;;49.42;25.65;;;13.50;99.90;;;;;;6185806;23;20013;-82
2022/03/25 08:43:49;;;;;;;45.58;26.63;;;13.70;99.90;;;;;;6186806;23;20009;-81
2022/03/25 08:46:15;;;;;;;55.63;28.23;;;14.00;99.90;;;;;;6159168;23;20071;-82
2022/03/25 08:48:40;;;;;;;51.17;26.52;;;14.10;99.90;;;;;;6185614;23;20084;-81
2022/03/25 08:51:06;;;;;;;43.88;23.90;;;14.20;99.90;;;;;;6134096;23;20102;-81
2022/03/25 08:53:32;;;;;;;51.88;27.30;;;14.30;99.90;;;;;;6186923;23;20346;-81
2022/03/25 08:55:58;;;;;;;49.15;26.70;;;14.40;99.90;;;;;;6186300;23;20037;-80
2022/03/25 08:58:24;;;;;;;43.05;25.50;;;14.30;99.90;;;;;;6160865;23;20052;-80
2022/03/25 09:00:50;;;;;;;51.67;26.85;;;14.20;99.90;;;;;;6161628;23;20013;-80
2022/03/25 09:03:15;;;;;;;46.80;25.30;;;14.20;99.90;;;;;;6160580;23;20028;-80
2022/03/25 09:05:41;;;;;;;52.13;26.55;;;14.30;99.90;;;;;;6159657;23;20021;-80
2022/03/25 09:08:07;;;;;;;47.95;25.15;;;14.60;99.90;;;;;;6160413;23;20017;-80
2022/03/25 09:10:33;;;;;;;47.38;24.98;;;14.80;99.90;;;;;;6159840;23;20021;-80
2022/03/25 09:12:58;;;;;;;45.47;24.85;;;14.90;99.90;;;;;;6135172;23;20013;-80
2022/03/25 09:15:25;;;;;;;45.25;24.35;;;15.20;99.90;;;;;;6161463;23;20017;-80
2022/03/25 09:17:50;;;;;;;48.38;24.20;;;15.50;99.90;;;;;;6161112;23;20017;-80
2022/03/25 09:20:16;;;;;;;43.08;23.95;;;15.90;99.90;;;;;;6157954;23;20097;-80
2022/03/25 09:22:43;;;;;;;45.25;24.55;;;16.10;99.90;;;;;;6135085;23;20426;-80
2022/03/25 09:25:10;;;;;;;45.80;23.70;;;16.10;99.90;;;;;;6134623;23;20477;-80
2022/03/25 09:27:36;;;;;;;46.47;24.40;;;15.90;99.90;;;;;;6159331;23;20013;-80
2022/03/25 09:30:04;;;;;;;44.47;23.70;;;15.80;99.90;;;;;;6133691;23;20020;-81
2022/03/25 09:32:30;;;;;;;46.72;23.52;;;15.80;99.90;;;;;;6158629;23;20100;-80
2022/03/25 09:35:08;;;;;;;48.95;23.67;;;15.80;99.90;;;;;;6131900;23;20021;-80
2022/03/25 09:37:43;;;;;;;43.03;22.58;;;15.90;99.90;;;;;;6132579;23;20561;-80
2022/03/25 09:40:12;;;;;;;42.33;23.38;;;16.10;96.90;;;;;;6132539;23;20005;-81
2022/03/25 09:42:39;;;;;;;44.75;24.45;;;16.20;99.90;;;;;;6157626;23;20021;-81
2022/03/25 09:45:06;;;;;;;45.45;24.67;;;16.30;99.90;;;;;;6184541;23;20454;-81
2022/03/25 09:47:32;;;;;;;46.92;24.17;;;16.50;99.90;;;;;;6183395;23;20020;-81
2022/03/25 09:49:59;;;;;;;48.05;25.20;;;16.70;99.90;;;;;;6183207;23;20036;-81
2022/03/25 09:52:28;;;;;;;45.28;23.98;;;16.70;99.90;;;;;;6183628;23;20020;-81
2022/03/25 09:54:53;;;;;;;47.10;25.58;;;16.90;99.50;;;;;;6157465;23;20013;-81
2022/03/25 09:57:19;;;;;;;42.53;22.85;;;16.90;98.80;;;;;;6132611;23;20079;-81
2022/03/25 09:59:45;;;;;;;46.22;24.13;;;16.70;98.20;;;;;;6156231;23;20012;-81
2022/03/25 10:02:10;;;;;;;41.63;22.33;;;16.50;98.80;;;;;;6183817;23;20020;-81
2022/03/25 10:04:39;;;;;;;42.42;22.83;;;16.40;96.70;;;;;;6156769;23;20025;-81
2022/03/25 10:07:17;;;;;;;42.65;23.45;;;16.30;97.60;;;;;;6183245;23;20017;-81
2022/03/25 10:09:44;;;;;;;52.05;24.48;;;16.10;91.50;;;;;;6156146;23;20043;-81
2022/03/25 10:12:27;;;;;;;60.60;31.38;;;16.10;97.80;;;;;;6183379;23;20079;-80
2022/03/25 10:15:10;;;;;;;45.67;22.30;;;16.10;91.50;;;;;;6183817;23;20040;-81
2022/03/25 10:17:54;;;;;;;46.63;23.13;;;16.20;93.00;;;;;;6183500;23;20501;-81
2022/03/25 10:20:22;;;;;;;51.83;22.55;;;16.30;92.10;;;;;;6157364;23;20009;-82
2022/03/25 10:23:06;;;;;;;42.17;22.35;;;16.20;90.50;;;;;;6157263;23;20063;-82
2022/03/25 10:25:44;;;;;;;42.72;21.30;;;16.00;97.10;;;;;;6157694;23;20052;-81
2022/03/25 10:28:27;;;;;;;40.17;20.58;;;16.00;97.30;;;;;;6157443;23;20005;-82
2022/03/25 10:31:02;;;;;;;43.67;21.48;;;16.10;87.20;;;;;;6132168;23;20446;-82
2022/03/25 10:33:32;;;;;;;41.65;21.83;;;16.10;96.60;;;;;;6184171;23;20005;-81
2022/03/25 10:36:08;;;;;;;44.95;22.63;;;16.10;93.00;;;;;;6159961;23;20099;-82
2022/03/25 10:39:00;;;;;;;40.63;21.77;;;16.00;97.00;;;;;;6160087;23;20434;-82
2022/03/25 10:41:37;;;;;;;51.53;21.85;;;15.90;95.10;;;;;;6187424;23;20017;-81
2022/03/25 10:44:04;;;;;;;40.80;20.48;;;16.00;96.80;;;;;;6160751;23;20017;-81
2022/03/25 10:46:36;;;;;;;44.83;20.73;;;16.10;97.90;;;;;;6160656;23;20088;-81
2022/03/25 10:49:07;;;;;;;38.45;19.70;;;16.30;96.40;;;;;;6160989;23;20036;-81
2022/03/25 10:51:34;;;;;;;41.50;20.15;;;16.30;95.80;;;;;;6135001;23;20092;-81
2022/03/25 10:54:03;;;;;;;44.25;21.08;;;16.40;94.60;;;;;;6159643;23;20052;-81
2022/03/25 10:56:40;;;;;;;39.63;19.80;;;16.50;92.90;;;;;;6139267;23;20063;-81
2022/03/25 10:59:29;;;;;;;41.40;20.90;;;16.40;91.10;;;;;;6192363;23;20006;-81
2022/03/25 11:02:00;;;;;;;44.72;19.52;;;16.20;92.60;;;;;;6138193;23;20067;-82
2022/03/25 11:04:26;;;;;;;44.97;19.92;;;16.20;92.80;;;;;;6137715;23;20036;-81
2022/03/25 11:06:53;;;;;;;37.95;19.20;;;16.30;93.60;;;;;;6140070;23;20024;-82
2022/03/25 11:09:19;;;;;;;39.92;19.40;;;16.40;92.00;;;;;;6198717;23;20052;-81
2022/03/25 11:11:47;;;;;;;38.25;19.60;;;16.50;90.90;;;;;;6191423;23;20128;-83
2022/03/25 11:14:13;;;;;;;37.58;17.50;;;16.60;88.50;;;;;;6165285;23;20017;-82
2022/03/25 11:16:42;;;;;;;39.50;18.58;;;16.60;85.80;;;;;;6165558;23;20019;-82
2022/03/25 11:19:11;;;;;;;39.92;19.50;;;16.60;76.10;;;;;;6167218;23;20015;-82
2022/03/25 11:21:40;;;;;;;38.38;18.48;;;16.60;86.70;;;;;;6169759;23;20023;-81
2022/03/25 11:24:12;;;;;;;39.42;18.80;;;16.70;89.70;;;;;;6149376;23;20013;-82
2022/03/25 11:26:41;;;;;;;41.10;17.67;;;16.80;82.50;;;;;;6173846;23;20347;-80
2022/03/25 11:29:12;;;;;;;38.13;18.00;;;16.80;80.50;;;;;;6194092;23;20017;-82
2022/03/25 11:32:24;;;;;;;42.42;20.23;;;16.70;74.70;;;;;;6198712;23;20060;-82
2022/03/25 11:34:55;;;;;;;36.75;17.75;;;16.50;67.50;;;;;;6193254;23;20015;-82
2022/03/25 11:37:28;;;;;;;34.60;17.75;;;16.50;64.00;;;;;;6172607;23;20013;-84
2022/03/25 11:40:13;;;;;;;40.83;18.65;;;16.50;80.50;;;;;;6139691;23;20009;-80
2022/03/25 11:42:46;;;;;;;36.58;17.15;;;16.40;73.70;;;;;;6190730;23;20016;-80
2022/03/25 11:45:20;;;;;;;38.67;17.65;;;16.50;78.70;;;;;;6163979;23;20017;-81
2022/03/25 11:48:07;;;;;;;39.25;18.58;;;16.60;81.00;;;;;;6163096;23;20016;-80
2022/03/25 11:50:35;;;;;;;38.10;17.75;;;16.80;75.40;;;;;;6161168;23;20087;-80
2022/03/25 11:53:10;;;;;;;41.83;19.10;;;16.90;77.10;;;;;;6135658;23;20009;-82
2022/03/25 11:55:59;;;;;;;37.85;17.17;;;17.00;80.50;;;;;;6136274;23;20020;-82
2022/03/25 11:58:24;;;;;;;41.58;17.92;;;17.00;63.60;;;;;;6162659;23;20017;-81
2022/03/25 12:00:54;;;;;;;35.20;17.70;;;17.10;75.60;;;;;;6139548;23;20084;-81
2022/03/25 12:03:20;;;;;;;36.88;17.42;;;17.20;74.50;;;;;;6187899;23;20013;-82
2022/03/25 12:06:00;;;;;;;33.63;17.55;;;17.20;74.90;;;;;;6186935;23;20472;-83
2022/03/25 12:08:30;;;;;;;32.28;16.80;;;17.30;71.10;;;;;;6136041;23;20351;-83
2022/03/25 12:10:57;;;;;;;37.67;16.63;;;17.40;68.50;;;;;;6186619;23;20393;-81
2022/03/25 12:13:55;;;;;;;38.08;16.85;;;17.30;65.20;;;;;;6159588;23;20319;-80
2022/03/25 12:16:45;;;;;;;38.25;17.60;;;17.20;59.90;;;;;;6159880;23;20013;-81
2022/03/25 12:19:26;;;;;;;33.17;15.00;;;17.20;60.90;;;;;;6159263;23;20092;-81
2022/03/25 12:22:28;;;;;;;37.50;17.73;;;17.20;66.90;;;;;;6160014;23;20017;-81
2022/03/25 12:24:55;;;;;;;38.05;18.13;;;17.20;73.40;;;;;;6159729;23;20013;-82
2022/03/25 12:27:23;;;;;;;36.90;18.73;;;17.40;70.20;;;;;;6188063;23;20024;-82
2022/03/25 12:29:51;;;;;;;42.92;18.30;;;17.50;70.80;;;;;;6160124;23;20335;-81
2022/03/25 12:32:19;;;;;;;42.30;17.35;;;17.40;70.10;;;;;;6160822;23;20021;-81
2022/03/25 12:35:08;;;;;;;39.10;18.40;;;17.50;70.60;;;;;;6136241;23;20013;-82
2022/03/25 12:38:01;;;;;;;38.22;17.20;;;17.60;63.40;;;;;;6160493;23;20402;-81
2022/03/25 12:40:29;;;;;;;42.22;19.98;;;17.70;58.80;;;;;;6135800;23;20040;-81